sensor_id;sensor_type;location;lat;lon;timestamp;pressure;altitude;pressure_sealevel;temperature;humidity
80911;BME280;70359;51.420;7.032;2023-07-20T00:00:56;999.2292;;;19.96;55.00195
80911;BME280;70359;51.420;7.032;2023-07-20T00:03:21;999.2275;;;19.96;54.77051
80911;BME280;70359;51.420;7.032;2023-07-20T00:05:46;999.1919;;;19.95;54.93066
80911;BME280;70359;51.420;7.032;2023-07-20T00:08:11;999.1953;;;19.98;55.16699
80911;BME280;70359;51.420;7.032;2023-07-20T00:10:36;999.2308;;;19.99;54.90039
80911;BME280;70359;51.420;7.032;2023-07-20T00:13:01;999.2427;;;20.02;54.7666
80911;BME280;70359;51.420;7.032;2023-07-20T00:15:26;999.1958;;;20.01;55.22852
80911;BME280;70359;51.420;7.032;2023-07-20T00:17:51;999.1755;;;20.02;54.88184
80911;BME280;70359;51.420;7.032;2023-07-20T00:20:16;999.1448;;;20.03;55.02148
80911;BME280;70359;51.420;7.032;2023-07-20T00:22:41;999.1023;;;20.06;55.62793
80911;BME280;70359;51.420;7.032;2023-07-20T00:25:06;999.1013;;;20.08;54.85352
80911;BME280;70359;51.420;7.032;2023-07-20T00:27:31;999.0706;;;20.08;54.87793
80911;BME280;70359;51.420;7.032;2023-07-20T00:29:56;999.0555;;;20.07;54.84277
80911;BME280;70359;51.420;7.032;2023-07-20T00:32:21;999.0678;;;20;54.98438
80911;BME280;70359;51.420;7.032;2023-07-20T00:34:46;999.0352;;;19.98;54.80762
80911;BME280;70359;51.420;7.032;2023-07-20T00:37:11;999.0328;;;19.94;55.16016
80911;BME280;70359;51.420;7.032;2023-07-20T00:39:36;999.0721;;;19.9;55.2959
80911;BME280;70359;51.420;7.032;2023-07-20T00:42:01;999.0467;;;19.88;55.3623
80911;BME280;70359;51.420;7.032;2023-07-20T00:44:26;999.0233;;;19.84;55.0791
80911;BME280;70359;51.420;7.032;2023-07-20T00:46:51;999.0208;;;19.81;55.50391
80911;BME280;70359;51.420;7.032;2023-07-20T00:49:16;998.9977;;;19.77;55.36035
80911;BME280;70359;51.420;7.032;2023-07-20T00:51:41;998.9767;;;19.74;55.62305
80911;BME280;70359;51.420;7.032;2023-07-20T00:54:06;998.9668;;;19.73;55.62109
80911;BME280;70359;51.420;7.032;2023-07-20T00:56:31;998.9825;;;19.69;55.83594
80911;BME280;70359;51.420;7.032;2023-07-20T00:58:56;999.0081;;;19.67;55.64844
80911;BME280;70359;51.420;7.032;2023-07-20T01:01:21;999.0308;;;19.65;55.95898
80911;BME280;70359;51.420;7.032;2023-07-20T01:03:46;999.0655;;;19.65;56.00488
80911;BME280;70359;51.420;7.032;2023-07-20T01:06:14;999.0435;;;19.63;56.47559
80911;BME280;70359;51.420;7.032;2023-07-20T01:08:37;999.0894;;;19.62;56.71875
80911;BME280;70359;51.420;7.032;2023-07-20T01:11:02;999.0338;;;19.63;56.71875
80911;BME280;70359;51.420;7.032;2023-07-20T01:13:26;999.0041;;;19.64;56.7207
80911;BME280;70359;51.420;7.032;2023-07-20T01:15:52;999.0333;;;19.63;56.7998
80911;BME280;70359;51.420;7.032;2023-07-20T01:18:16;998.9861;;;19.64;56.41895
80911;BME280;70359;51.420;7.032;2023-07-20T01:20:41;998.913;;;19.6;56.92285
80911;BME280;70359;51.420;7.032;2023-07-20T01:25:40;998.9442;;;19.57;56.8623
80911;BME280;70359;51.420;7.032;2023-07-20T01:28:02;998.9327;;;19.58;57.04785
80911;BME280;70359;51.420;7.032;2023-07-20T01:30:28;998.9677;;;19.52;56.99414
80911;BME280;70359;51.420;7.032;2023-07-20T01:32:46;999.0041;;;19.52;57.06348
80911;BME280;70359;51.420;7.032;2023-07-20T01:35:11;998.944;;;19.48;56.93066
80911;BME280;70359;51.420;7.032;2023-07-20T01:37:36;998.8848;;;19.44;57.35352
80911;BME280;70359;51.420;7.032;2023-07-20T01:40:01;998.8867;;;19.45;57.48145
80911;BME280;70359;51.420;7.032;2023-07-20T01:42:26;998.9119;;;19.46;57.37891
80911;BME280;70359;51.420;7.032;2023-07-20T01:44:51;998.9137;;;19.44;57.52734
80911;BME280;70359;51.420;7.032;2023-07-20T01:47:16;998.9296;;;19.47;57.43848
80911;BME280;70359;51.420;7.032;2023-07-20T01:49:41;998.9191;;;19.49;57.3252
80911;BME280;70359;51.420;7.032;2023-07-20T01:52:06;998.91;;;19.46;57.21777
80911;BME280;70359;51.420;7.032;2023-07-20T01:54:31;998.9267;;;19.46;57.21777
80911;BME280;70359;51.420;7.032;2023-07-20T01:56:56;998.8797;;;19.44;57.87305
80911;BME280;70359;51.420;7.032;2023-07-20T01:59:21;998.9066;;;19.46;58.25781
80911;BME280;70359;51.420;7.032;2023-07-20T02:01:46;998.867;;;19.45;58.95996
80911;BME280;70359;51.420;7.032;2023-07-20T02:04:11;998.8397;;;19.45;59.08691
80911;BME280;70359;51.420;7.032;2023-07-20T02:06:36;998.782;;;19.47;59.10254
80911;BME280;70359;51.420;7.032;2023-07-20T02:09:01;998.7447;;;19.45;59.51465
80911;BME280;70359;51.420;7.032;2023-07-20T02:11:26;998.7823;;;19.43;59.66211
80911;BME280;70359;51.420;7.032;2023-07-20T02:13:51;998.8337;;;19.44;59.6748
80911;BME280;70359;51.420;7.032;2023-07-20T02:16:16;998.8117;;;19.43;59.64941
80911;BME280;70359;51.420;7.032;2023-07-20T02:18:41;998.7933;;;19.43;59.89258
80911;BME280;70359;51.420;7.032;2023-07-20T02:21:06;998.8475;;;19.38;59.96777
80911;BME280;70359;51.420;7.032;2023-07-20T02:23:31;998.8217;;;19.35;60.49316
80911;BME280;70359;51.420;7.032;2023-07-20T02:25:56;998.8382;;;19.33;60.37598
80911;BME280;70359;51.420;7.032;2023-07-20T02:28:21;998.8417;;;19.32;60.00586
80911;BME280;70359;51.420;7.032;2023-07-20T02:30:46;998.8304;;;19.29;60.47559
80911;BME280;70359;51.420;7.032;2023-07-20T02:33:11;998.8067;;;19.29;60.63672
80911;BME280;70359;51.420;7.032;2023-07-20T02:35:36;998.8387;;;19.3;60.73047
80911;BME280;70359;51.420;7.032;2023-07-20T02:38:01;998.8695;;;19.33;60.78027
80911;BME280;70359;51.420;7.032;2023-07-20T02:40:26;998.8723;;;19.32;60.70996
80911;BME280;70359;51.420;7.032;2023-07-20T02:42:51;998.8794;;;19.34;61.04688
80911;BME280;70359;51.420;7.032;2023-07-20T02:45:17;998.9434;;;19.32;61.0791
80911;BME280;70359;51.420;7.032;2023-07-20T02:47:41;998.9617;;;19.33;60.88477
80911;BME280;70359;51.420;7.032;2023-07-20T02:50:07;998.9489;;;19.36;60.7959
80911;BME280;70359;51.420;7.032;2023-07-20T02:52:31;999.0109;;;19.37;60.75098
80911;BME280;70359;51.420;7.032;2023-07-20T02:54:56;999.0706;;;19.38;60.99512
80911;BME280;70359;51.420;7.032;2023-07-20T02:57:21;999.01;;;19.4;60.9043
80911;BME280;70359;51.420;7.032;2023-07-20T02:59:46;998.9398;;;19.41;60.76855
80911;BME280;70359;51.420;7.032;2023-07-20T03:02:11;998.9849;;;19.4;61.08887
80911;BME280;70359;51.420;7.032;2023-07-20T03:04:36;999.0331;;;19.43;60.64258
80911;BME280;70359;51.420;7.032;2023-07-20T03:07:01;999.0786;;;19.4;61.34375
80911;BME280;70359;51.420;7.032;2023-07-20T03:09:26;999.116;;;19.42;61.12695
80911;BME280;70359;51.420;7.032;2023-07-20T03:11:51;999.0506;;;19.4;61.10156
80911;BME280;70359;51.420;7.032;2023-07-20T03:14:16;999.0737;;;19.43;61.07227
80911;BME280;70359;51.420;7.032;2023-07-20T03:16:41;999.0839;;;19.42;60.98926
80911;BME280;70359;51.420;7.032;2023-07-20T03:19:06;999.0405;;;19.41;60.80273
80911;BME280;70359;51.420;7.032;2023-07-20T03:21:31;999.0952;;;19.34;61.09375
80911;BME280;70359;51.420;7.032;2023-07-20T03:23:56;999.0912;;;19.31;61.08984
80911;BME280;70359;51.420;7.032;2023-07-20T03:26:21;999.1157;;;19.26;60.81836
80911;BME280;70359;51.420;7.032;2023-07-20T03:28:46;999.1467;;;19.26;60.72559
80911;BME280;70359;51.420;7.032;2023-07-20T03:31:11;999.1182;;;19.2;60.91309
80911;BME280;70359;51.420;7.032;2023-07-20T03:33:36;999.1108;;;19.19;61.39551
80911;BME280;70359;51.420;7.032;2023-07-20T03:36:01;999.1399;;;19.18;61.07129
80911;BME280;70359;51.420;7.032;2023-07-20T03:38:26;999.1426;;;19.19;60.74902
80911;BME280;70359;51.420;7.032;2023-07-20T03:40:54;999.1487;;;19.18;60.94531
80911;BME280;70359;51.420;7.032;2023-07-20T03:43:16;999.1375;;;19.2;60.30078
80911;BME280;70359;51.420;7.032;2023-07-20T03:45:41;999.1108;;;19.19;60.7959
80911;BME280;70359;51.420;7.032;2023-07-20T03:48:06;999.1602;;;19.16;60.5498
80911;BME280;70359;51.420;7.032;2023-07-20T03:50:31;999.2173;;;19.16;60.37598
80911;BME280;70359;51.420;7.032;2023-07-20T03:52:56;999.1986;;;19.18;60.69043
80911;BME280;70359;51.420;7.032;2023-07-20T03:55:21;999.2424;;;19.16;60.58398
80911;BME280;70359;51.420;7.032;2023-07-20T03:57:46;999.2202;;;19.14;60.5127
80911;BME280;70359;51.420;7.032;2023-07-20T04:02:10;999.2227;;;19.13;60.93848
80911;BME280;70359;51.420;7.032;2023-07-20T04:04:35;999.2296;;;19.09;60.72559
80911;BME280;70359;51.420;7.032;2023-07-20T04:07:00;999.2363;;;19.09;61.50977
80911;BME280;70359;51.420;7.032;2023-07-20T04:09:25;999.2612;;;19.1;61.48828
80911;BME280;70359;51.420;7.032;2023-07-20T04:11:50;999.2684;;;19.11;61.28125
80911;BME280;70359;51.420;7.032;2023-07-20T04:14:15;999.3141;;;19.14;61.27344
80911;BME280;70359;51.420;7.032;2023-07-20T04:16:40;999.3386;;;19.15;61.79395
80911;BME280;70359;51.420;7.032;2023-07-20T04:19:05;999.3628;;;19.13;61.51465
80911;BME280;70359;51.420;7.032;2023-07-20T04:21:30;999.3116;;;19.06;61.97754
80911;BME280;70359;51.420;7.032;2023-07-20T04:23:55;999.367;;;19.13;61.98633
80911;BME280;70359;51.420;7.032;2023-07-20T04:26:20;999.3853;;;19.11;61.89258
80911;BME280;70359;51.420;7.032;2023-07-20T04:28:45;999.3441;;;19.16;62.41797
80911;BME280;70359;51.420;7.032;2023-07-20T04:31:14;999.3469;;;19.15;62.12891
80911;BME280;70359;51.420;7.032;2023-07-20T04:33:35;999.3881;;;19.21;62.10254
80911;BME280;70359;51.420;7.032;2023-07-20T04:36:00;999.3998;;;19.2;62.32031
80911;BME280;70359;51.420;7.032;2023-07-20T04:38:25;999.4137;;;19.23;61.93262
80911;BME280;70359;51.420;7.032;2023-07-20T04:40:50;999.49;;;19.19;62.36523
80911;BME280;70359;51.420;7.032;2023-07-20T04:43:15;999.4885;;;19.24;62.24512
80911;BME280;70359;51.420;7.032;2023-07-20T04:45:40;999.4922;;;19.25;62.56934
80911;BME280;70359;51.420;7.032;2023-07-20T04:48:06;999.4553;;;19.29;62.2627
80911;BME280;70359;51.420;7.032;2023-07-20T04:50:30;999.4998;;;19.3;61.7793
80911;BME280;70359;51.420;7.032;2023-07-20T04:52:55;999.4958;;;19.31;61.9668
80911;BME280;70359;51.420;7.032;2023-07-20T04:55:20;999.5303;;;19.32;61.28711
80911;BME280;70359;51.420;7.032;2023-07-20T04:57:45;999.5363;;;19.34;61.42773
80911;BME280;70359;51.420;7.032;2023-07-20T05:00:10;999.5367;;;19.34;61.54297
80911;BME280;70359;51.420;7.032;2023-07-20T05:02:35;999.5381;;;19.32;61.55273
80911;BME280;70359;51.420;7.032;2023-07-20T05:05:00;999.5397;;;19.33;61.31152
80911;BME280;70359;51.420;7.032;2023-07-20T05:07:25;999.5428;;;19.31;61.34375
80911;BME280;70359;51.420;7.032;2023-07-20T05:09:50;999.5813;;;19.35;61.42773
80911;BME280;70359;51.420;7.032;2023-07-20T05:12:15;999.6074;;;19.33;61.99219
80911;BME280;70359;51.420;7.032;2023-07-20T05:14:40;999.6273;;;19.34;61.18555
80911;BME280;70359;51.420;7.032;2023-07-20T05:17:05;999.6646;;;19.32;62.11719
80911;BME280;70359;51.420;7.032;2023-07-20T05:19:30;999.6767;;;19.33;61.70313
80911;BME280;70359;51.420;7.032;2023-07-20T05:21:55;999.6655;;;19.29;61.7793
80911;BME280;70359;51.420;7.032;2023-07-20T05:24:20;999.6722;;;19.33;61.80762
80911;BME280;70359;51.420;7.032;2023-07-20T05:26:45;999.7262;;;19.31;61.78223
80911;BME280;70359;51.420;7.032;2023-07-20T05:29:10;999.7037;;;19.31;61.55078
80911;BME280;70359;51.420;7.032;2023-07-20T05:31:35;999.6809;;;19.31;61.08984
80911;BME280;70359;51.420;7.032;2023-07-20T05:34:00;999.671;;;19.3;60.81055
80911;BME280;70359;51.420;7.032;2023-07-20T05:36:25;999.7065;;;19.27;60.80664
80911;BME280;70359;51.420;7.032;2023-07-20T05:38:50;999.7336;;;19.29;61.57031
80911;BME280;70359;51.420;7.032;2023-07-20T05:41:15;999.7798;;;19.27;61.1416
80911;BME280;70359;51.420;7.032;2023-07-20T05:43:40;999.7516;;;19.29;61.08691
80911;BME280;70359;51.420;7.032;2023-07-20T05:46:05;999.7847;;;19.28;60.59961
80911;BME280;70359;51.420;7.032;2023-07-20T05:48:30;999.8077;;;19.28;60.52051
80911;BME280;70359;51.420;7.032;2023-07-20T05:50:55;999.807;;;19.18;60.58789
80911;BME280;70359;51.420;7.032;2023-07-20T05:53:20;999.8521;;;19.17;61.33496
80911;BME280;70359;51.420;7.032;2023-07-20T05:55:45;999.8381;;;19.13;59.86426
80911;BME280;70359;51.420;7.032;2023-07-20T05:58:10;999.8814;;;19.14;59.86621
80911;BME280;70359;51.420;7.032;2023-07-20T06:00:35;999.9013;;;18.99;59.73047
80911;BME280;70359;51.420;7.032;2023-07-20T06:03:00;999.9047;;;19.04;60.33789
80911;BME280;70359;51.420;7.032;2023-07-20T06:05:25;999.9158;;;18.99;60.03027
80911;BME280;70359;51.420;7.032;2023-07-20T06:07:50;999.9785;;;18.98;60.60547
80911;BME280;70359;51.420;7.032;2023-07-20T06:10:15;999.9963;;;18.99;60.51465
80911;BME280;70359;51.420;7.032;2023-07-20T06:12:40;999.9891;;;19.03;60.74023
80911;BME280;70359;51.420;7.032;2023-07-20T06:15:06;1000.061;;;19.06;61.2168
80911;BME280;70359;51.420;7.032;2023-07-20T06:17:30;1000.073;;;19.04;60.78613
80911;BME280;70359;51.420;7.032;2023-07-20T06:19:55;1000.123;;;19.12;61.21387
80911;BME280;70359;51.420;7.032;2023-07-20T06:22:20;1000.141;;;19.18;61.49805
80911;BME280;70359;51.420;7.032;2023-07-20T06:24:45;1000.167;;;19.24;60.08691
80911;BME280;70359;51.420;7.032;2023-07-20T06:27:10;1000.191;;;19.28;61.01563
80911;BME280;70359;51.420;7.032;2023-07-20T06:29:35;1000.196;;;19.35;60.48242
80911;BME280;70359;51.420;7.032;2023-07-20T06:32:00;1000.227;;;19.37;59.99023
80911;BME280;70359;51.420;7.032;2023-07-20T06:34:25;1000.207;;;19.37;60.20801
80911;BME280;70359;51.420;7.032;2023-07-20T06:36:50;1000.226;;;19.12;60.02441
80911;BME280;70359;51.420;7.032;2023-07-20T06:39:15;1000.218;;;19.15;60.95215
80911;BME280;70359;51.420;7.032;2023-07-20T06:41:40;1000.242;;;19.19;59.39941
80911;BME280;70359;51.420;7.032;2023-07-20T06:44:05;1000.254;;;19.22;59.78516
80911;BME280;70359;51.420;7.032;2023-07-20T06:46:30;1000.243;;;19.25;60.00781
80911;BME280;70359;51.420;7.032;2023-07-20T06:48:55;1000.211;;;19.27;58.94824
80911;BME280;70359;51.420;7.032;2023-07-20T06:51:20;1000.207;;;19.29;59.13574
80911;BME280;70359;51.420;7.032;2023-07-20T06:53:45;1000.144;;;19.32;59.39355
80911;BME280;70359;51.420;7.032;2023-07-20T06:56:10;1000.158;;;19.34;59.37305
80911;BME280;70359;51.420;7.032;2023-07-20T06:58:35;1000.111;;;19.43;59.21191
80911;BME280;70359;51.420;7.032;2023-07-20T07:01:04;1000.174;;;19.44;58.86719
80911;BME280;70359;51.420;7.032;2023-07-20T07:03:25;1000.203;;;19.46;58.33887
80911;BME280;70359;51.420;7.032;2023-07-20T07:05:50;1000.244;;;19.46;58.43164
80911;BME280;70359;51.420;7.032;2023-07-20T07:08:15;1000.27;;;19.51;58.94531
80911;BME280;70359;51.420;7.032;2023-07-20T07:10:40;1000.307;;;19.59;59.26855
80911;BME280;70359;51.420;7.032;2023-07-20T07:13:05;1000.286;;;19.67;59.04785
80911;BME280;70359;51.420;7.032;2023-07-20T07:15:30;1000.306;;;19.75;58.89648
80911;BME280;70359;51.420;7.032;2023-07-20T07:17:55;1000.282;;;19.9;59.70313
80911;BME280;70359;51.420;7.032;2023-07-20T07:20:24;1000.3;;;20.02;58.70117
80911;BME280;70359;51.420;7.032;2023-07-20T07:22:50;1000.329;;;20.15;58
80911;BME280;70359;51.420;7.032;2023-07-20T07:25:10;1000.349;;;20.25;57.75781
80911;BME280;70359;51.420;7.032;2023-07-20T07:27:35;1000.377;;;20.44;56.68262
80911;BME280;70359;51.420;7.032;2023-07-20T07:30:00;1000.363;;;20.56;56.74414
80911;BME280;70359;51.420;7.032;2023-07-20T07:32:25;1000.337;;;20.47;54.18359
80911;BME280;70359;51.420;7.032;2023-07-20T07:34:50;1000.351;;;20.5;53.23633
80911;BME280;70359;51.420;7.032;2023-07-20T07:37:15;1000.346;;;20.55;54.80664
80911;BME280;70359;51.420;7.032;2023-07-20T07:39:40;1000.338;;;20.44;53.32227
80911;BME280;70359;51.420;7.032;2023-07-20T07:42:05;1000.38;;;20.47;55.21484
80911;BME280;70359;51.420;7.032;2023-07-20T07:44:30;1000.393;;;20.65;55.81738
80911;BME280;70359;51.420;7.032;2023-07-20T07:46:55;1000.395;;;20.73;53.87793
80911;BME280;70359;51.420;7.032;2023-07-20T07:49:20;1000.466;;;20.87;53.65137
80911;BME280;70359;51.420;7.032;2023-07-20T07:51:45;1000.472;;;20.9;53.59766
80911;BME280;70359;51.420;7.032;2023-07-20T07:54:10;1000.547;;;21;52.94727
80911;BME280;70359;51.420;7.032;2023-07-20T07:56:35;1000.553;;;20.96;52.36133
80911;BME280;70359;51.420;7.032;2023-07-20T07:59:00;1000.512;;;21.04;53.06836
80911;BME280;70359;51.420;7.032;2023-07-20T08:01:25;1000.517;;;20.98;49.61035
80911;BME280;70359;51.420;7.032;2023-07-20T08:03:50;1000.555;;;21.12;49.76563
80911;BME280;70359;51.420;7.032;2023-07-20T08:06:15;1000.581;;;21.13;52.78809
80911;BME280;70359;51.420;7.032;2023-07-20T08:08:40;1000.609;;;21.41;51.14746
80911;BME280;70359;51.420;7.032;2023-07-20T08:11:05;1000.655;;;21.45;52.63965
80911;BME280;70359;51.420;7.032;2023-07-20T08:13:30;1000.611;;;21.56;51.47852
80911;BME280;70359;51.420;7.032;2023-07-20T08:15:55;1000.643;;;21.49;50.98145
80911;BME280;70359;51.420;7.032;2023-07-20T08:18:20;1000.685;;;21.57;51.27051
80911;BME280;70359;51.420;7.032;2023-07-20T08:20:47;1000.741;;;21.5;51.33203
80911;BME280;70359;51.420;7.032;2023-07-20T08:23:10;1000.746;;;21.47;50.67773
80911;BME280;70359;51.420;7.032;2023-07-20T08:25:35;1000.763;;;21.46;50.50195
80911;BME280;70359;51.420;7.032;2023-07-20T08:28:00;1000.746;;;21.55;51.07031
80911;BME280;70359;51.420;7.032;2023-07-20T08:30:25;1000.718;;;21.57;51.13086
80911;BME280;70359;51.420;7.032;2023-07-20T08:32:50;1000.657;;;21.64;50.31152
80911;BME280;70359;51.420;7.032;2023-07-20T08:35:15;1000.712;;;21.76;51.14063
80911;BME280;70359;51.420;7.032;2023-07-20T08:37:40;1000.648;;;21.88;50.64258
80911;BME280;70359;51.420;7.032;2023-07-20T08:40:06;1000.676;;;21.91;48.25781
80911;BME280;70359;51.420;7.032;2023-07-20T08:42:30;1000.704;;;21.87;49.55762
80911;BME280;70359;51.420;7.032;2023-07-20T08:44:55;1000.761;;;21.89;49.04785
80911;BME280;70359;51.420;7.032;2023-07-20T08:47:20;1000.719;;;21.93;48.7959
80911;BME280;70359;51.420;7.032;2023-07-20T08:49:46;1000.766;;;21.76;48.38184
80911;BME280;70359;51.420;7.032;2023-07-20T08:52:10;1000.786;;;21.61;47.31738
80911;BME280;70359;51.420;7.032;2023-07-20T08:54:35;1000.779;;;21.65;48.28809
80911;BME280;70359;51.420;7.032;2023-07-20T08:57:01;1000.799;;;21.52;48.50781
80911;BME280;70359;51.420;7.032;2023-07-20T08:59:25;1000.828;;;21.5;48.24805
80911;BME280;70359;51.420;7.032;2023-07-20T09:01:50;1000.823;;;21.46;49.57129
80911;BME280;70359;51.420;7.032;2023-07-20T09:04:15;1000.847;;;21.48;48.94531
80911;BME280;70359;51.420;7.032;2023-07-20T09:06:40;1000.83;;;21.49;49.37695
80911;BME280;70359;51.420;7.032;2023-07-20T09:09:05;1000.795;;;21.39;48.36523
80911;BME280;70359;51.420;7.032;2023-07-20T09:11:30;1000.782;;;21.4;48.61035
80911;BME280;70359;51.420;7.032;2023-07-20T09:14:05;1000.762;;;21.49;49.48145
80911;BME280;70359;51.420;7.032;2023-07-20T09:16:20;1000.737;;;21.49;50.14355
80911;BME280;70359;51.420;7.032;2023-07-20T09:18:47;1000.745;;;21.64;50.51074
80911;BME280;70359;51.420;7.032;2023-07-20T09:21:10;1000.727;;;21.57;48.32617
80911;BME280;70359;51.420;7.032;2023-07-20T09:23:36;1000.733;;;21.79;46.75293
80911;BME280;70359;51.420;7.032;2023-07-20T09:26:00;1000.766;;;21.8;47.60449
80911;BME280;70359;51.420;7.032;2023-07-20T09:28:25;1000.811;;;21.87;47.01855
80911;BME280;70359;51.420;7.032;2023-07-20T09:30:50;1000.777;;;21.83;46.49023
80911;BME280;70359;51.420;7.032;2023-07-20T09:33:21;1000.781;;;21.88;44.47852
80911;BME280;70359;51.420;7.032;2023-07-20T09:35:40;1000.707;;;21.93;46.08008
80911;BME280;70359;51.420;7.032;2023-07-20T09:38:05;1000.738;;;21.97;45.83887
80911;BME280;70359;51.420;7.032;2023-07-20T09:40:45;1000.748;;;21.97;43.98438
80911;BME280;70359;51.420;7.032;2023-07-20T09:42:55;1000.736;;;21.94;43.63086
80911;BME280;70359;51.420;7.032;2023-07-20T09:45:20;1000.701;;;22.04;44.93652
80911;BME280;70359;51.420;7.032;2023-07-20T09:47:46;1000.674;;;21.98;41.51172
80911;BME280;70359;51.420;7.032;2023-07-20T09:50:11;1000.683;;;21.94;42.81543
80911;BME280;70359;51.420;7.032;2023-07-20T09:52:36;1000.637;;;22;43.55664
80911;BME280;70359;51.420;7.032;2023-07-20T09:55:01;1000.642;;;22;45.22363
80911;BME280;70359;51.420;7.032;2023-07-20T09:57:26;1000.691;;;21.92;44.35254
80911;BME280;70359;51.420;7.032;2023-07-20T09:59:51;1000.67;;;21.94;45.27637
80911;BME280;70359;51.420;7.032;2023-07-20T10:02:19;1000.673;;;21.9;45.30859
80911;BME280;70359;51.420;7.032;2023-07-20T10:04:41;1000.684;;;22;45.23535
80911;BME280;70359;51.420;7.032;2023-07-20T10:07:07;1000.658;;;21.98;44.88477
80911;BME280;70359;51.420;7.032;2023-07-20T10:09:31;1000.683;;;22;43.5918
80911;BME280;70359;51.420;7.032;2023-07-20T10:11:56;1000.676;;;22.01;42.97363
80911;BME280;70359;51.420;7.032;2023-07-20T10:14:21;1000.688;;;22.09;43.50586
80911;BME280;70359;51.420;7.032;2023-07-20T10:16:46;1000.704;;;21.92;43.29102
80911;BME280;70359;51.420;7.032;2023-07-20T10:19:11;1000.709;;;21.93;43.07129
80911;BME280;70359;51.420;7.032;2023-07-20T10:21:37;1000.711;;;21.97;44.78906
80911;BME280;70359;51.420;7.032;2023-07-20T10:24:01;1000.717;;;22;44.47754
80911;BME280;70359;51.420;7.032;2023-07-20T10:26:26;1000.709;;;21.95;44.97461
80911;BME280;70359;51.420;7.032;2023-07-20T10:28:51;1000.695;;;21.96;44.05371
80911;BME280;70359;51.420;7.032;2023-07-20T10:31:16;1000.659;;;21.8;42.91797
80911;BME280;70359;51.420;7.032;2023-07-20T10:33:41;1000.6;;;21.77;43.66211
80911;BME280;70359;51.420;7.032;2023-07-20T10:36:06;1000.571;;;21.69;42.29004
80911;BME280;70359;51.420;7.032;2023-07-20T10:38:52;1000.605;;;21.82;43.24707
80911;BME280;70359;51.420;7.032;2023-07-20T10:40:58;1000.632;;;21.86;44.09082
80911;BME280;70359;51.420;7.032;2023-07-20T10:43:21;1000.646;;;21.94;44.20313
80911;BME280;70359;51.420;7.032;2023-07-20T10:45:47;1000.519;;;21.69;44.54004
80911;BME280;70359;51.420;7.032;2023-07-20T10:48:16;1000.513;;;21.83;44.42578
80911;BME280;70359;51.420;7.032;2023-07-20T10:50:38;1000.53;;;21.88;43.94141
80911;BME280;70359;51.420;7.032;2023-07-20T10:53:13;1000.491;;;21.89;43.65039
80911;BME280;70359;51.420;7.032;2023-07-20T10:55:26;1000.471;;;21.7;42.19727
80911;BME280;70359;51.420;7.032;2023-07-20T11:00:19;1000.499;;;21.76;44.86133
80911;BME280;70359;51.420;7.032;2023-07-20T11:02:47;1000.442;;;21.77;42.62305
80911;BME280;70359;51.420;7.032;2023-07-20T11:05:06;1000.408;;;21.83;42.2207
80911;BME280;70359;51.420;7.032;2023-07-20T11:07:39;1000.376;;;21.65;42.625
80911;BME280;70359;51.420;7.032;2023-07-20T11:09:56;1000.387;;;21.44;42.52246
80911;BME280;70359;51.420;7.032;2023-07-20T11:12:21;1000.336;;;21.45;41.75391
80911;BME280;70359;51.420;7.032;2023-07-20T11:14:52;1000.324;;;21.68;40.7373
80911;BME280;70359;51.420;7.032;2023-07-20T11:17:14;1000.342;;;21.71;41.3584
80911;BME280;70359;51.420;7.032;2023-07-20T11:19:36;1000.308;;;21.82;43.21289
80911;BME280;70359;51.420;7.032;2023-07-20T11:22:01;1000.287;;;21.84;41.95313
80911;BME280;70359;51.420;7.032;2023-07-20T11:24:26;1000.277;;;21.88;41.49023
80911;BME280;70359;51.420;7.032;2023-07-20T11:26:52;1000.238;;;21.86;41.0332
80911;BME280;70359;51.420;7.032;2023-07-20T11:29:16;1000.256;;;21.94;41.90527
80911;BME280;70359;51.420;7.032;2023-07-20T11:31:41;1000.273;;;21.99;42.99512
80911;BME280;70359;51.420;7.032;2023-07-20T11:34:07;1000.202;;;22.07;41.98633
80911;BME280;70359;51.420;7.032;2023-07-20T11:36:31;1000.198;;;22.1;39.91113
80911;BME280;70359;51.420;7.032;2023-07-20T11:38:56;1000.124;;;22.13;37.30566
80911;BME280;70359;51.420;7.032;2023-07-20T11:41:21;1000.116;;;22.15;38.01074
80911;BME280;70359;51.420;7.032;2023-07-20T11:43:46;1000.044;;;22.28;38.61719
80911;BME280;70359;51.420;7.032;2023-07-20T11:46:11;1000.091;;;22.32;39.90625
80911;BME280;70359;51.420;7.032;2023-07-20T11:48:36;1000.059;;;22.43;40.62988
80911;BME280;70359;51.420;7.032;2023-07-20T11:51:01;1000.071;;;22.46;41.4502
80911;BME280;70359;51.420;7.032;2023-07-20T11:53:26;1000.026;;;22.42;39.77539
80911;BME280;70359;51.420;7.032;2023-07-20T11:55:51;1000.053;;;22.53;39.04883
80911;BME280;70359;51.420;7.032;2023-07-20T11:58:16;999.9864;;;22.65;40.60352
80911;BME280;70359;51.420;7.032;2023-07-20T12:00:43;1000.015;;;22.69;40.40723
80911;BME280;70359;51.420;7.032;2023-07-20T12:03:06;999.9892;;;22.72;40.00098
80911;BME280;70359;51.420;7.032;2023-07-20T12:05:31;999.9958;;;22.75;39.18457
80911;BME280;70359;51.420;7.032;2023-07-20T12:07:56;999.9401;;;22.65;38.16895
80911;BME280;70359;51.420;7.032;2023-07-20T12:10:23;999.939;;;22.69;39.2959
80911;BME280;70359;51.420;7.032;2023-07-20T12:12:46;999.9451;;;22.69;39.22559
80911;BME280;70359;51.420;7.032;2023-07-20T12:15:20;999.93;;;22.71;37.7998
80911;BME280;70359;51.420;7.032;2023-07-20T12:17:36;999.9803;;;22.71;37.76367
80911;BME280;70359;51.420;7.032;2023-07-20T12:20:01;999.9874;;;22.78;38.66016
80911;BME280;70359;51.420;7.032;2023-07-20T12:22:26;999.9331;;;22.72;37.03906
80911;BME280;70359;51.420;7.032;2023-07-20T12:24:51;999.8656;;;22.78;37.3252
80911;BME280;70359;51.420;7.032;2023-07-20T12:27:17;999.894;;;22.75;37.73242